Time;durP1;ratioP1;P1;durP2;ratioP2;P2;SDS_P1;SDS_P2;PMS_P1;PMS_P2;Temp;Humidity;BMP_temperature;BMP_pressure;BME280_temperature;BME280_humidity;BME280_pressure;Samples;Min_cycle;Max_cycle;Signal;HPM_P1;HPM_P2
2022/02/25 00:01:54;;;;;;;7.63;1.90;;;9.50;1.00;;;;;;5094174;28;20278;-76
2022/02/25 00:04:21;;;;;;;6.97;2.17;;;9.60;1.00;;;;;;5095150;28;20205;-77
2022/02/25 00:06:50;;;;;;;4.53;1.70;;;9.60;1.00;;;;;;5094793;28;20206;-74
2022/02/25 00:09:17;;;;;;;3.60;2.57;;;9.70;1.00;;;;;;5094036;28;20201;-76
2022/02/25 00:11:45;;;;;;;4.33;1.90;;;9.60;1.00;;;;;;5094290;28;20233;-76
2022/02/25 00:14:11;;;;;;;4.40;1.97;;;9.60;1.00;;;;;;5094017;28;20587;-76
2022/02/25 00:16:38;;;;;;;7.07;1.90;;;9.60;1.00;;;;;;5094300;28;20202;-76
2022/02/25 00:19:06;;;;;;;5.67;2.73;;;9.60;1.00;;;;;;5094093;28;20205;-76
2022/02/25 00:21:33;;;;;;;4.13;2.13;;;9.60;1.00;;;;;;5094058;28;20609;-74
2022/02/25 00:24:01;;;;;;;6.33;2.13;;;9.60;1.00;;;;;;5093951;28;20566;-77
2022/02/25 00:26:28;;;;;;;4.47;1.97;;;9.50;1.00;;;;;;5094120;28;20209;-76
2022/02/25 00:28:55;;;;;;;4.60;2.13;;;9.50;1.00;;;;;;5094228;28;20201;-76
2022/02/25 00:31:22;;;;;;;8.93;1.97;;;9.60;1.00;;;;;;5094446;28;20205;-71
2022/02/25 00:33:49;;;;;;;6.23;1.87;;;9.50;1.00;;;;;;5094203;28;20209;-77
2022/02/25 00:36:16;;;;;;;6.43;3.13;;;9.60;1.00;;;;;;5093784;28;20227;-73
2022/02/25 00:38:43;;;;;;;5.07;2.20;;;9.60;1.00;;;;;;5093937;28;20209;-75
2022/02/25 00:41:11;;;;;;;6.43;3.13;;;9.60;1.00;;;;;;5093369;28;20225;-77
2022/02/25 00:43:38;;;;;;;4.27;1.73;;;9.50;1.00;;;;;;5093655;28;20197;-75
2022/02/25 00:46:05;;;;;;;5.97;2.03;;;9.40;1.00;;;;;;5093315;28;20205;-71
2022/02/25 00:48:32;;;;;;;4.50;2.47;;;9.40;1.00;;;;;;5093763;28;20696;-77
2022/02/25 00:50:59;;;;;;;5.67;2.40;;;9.20;1.00;;;;;;5093397;28;20247;-76
2022/02/25 00:53:26;;;;;;;5.23;2.30;;;9.20;1.00;;;;;;5093411;28;20263;-75
2022/02/25 00:55:53;;;;;;;4.20;1.77;;;9.20;1.00;;;;;;5093809;28;20206;-74
2022/02/25 00:58:23;;;;;;;3.73;1.77;;;9.20;1.00;;;;;;5093596;28;20228;-82
2022/02/25 01:00:50;;;;;;;4.50;2.33;;;9.20;1.00;;;;;;5092972;28;20209;-81
2022/02/25 01:03:17;;;;;;;4.63;2.37;;;9.20;1.00;;;;;;5093175;28;20290;-77
2022/02/25 01:05:44;;;;;;;8.80;2.23;;;9.10;1.00;;;;;;5093794;28;20206;-76
2022/02/25 01:08:11;;;;;;;4.33;1.90;;;9.10;1.00;;;;;;5092727;28;20618;-79
2022/02/25 01:10:38;;;;;;;4.50;2.57;;;9.00;1.00;;;;;;5093304;28;20734;-77
2022/02/25 01:13:05;;;;;;;7.80;2.27;;;9.00;1.00;;;;;;5092980;28;20209;-79
2022/02/25 01:15:34;;;;;;;4.20;2.43;;;9.10;1.00;;;;;;5093530;28;20250;-78
2022/02/25 01:18:01;;;;;;;4.30;2.13;;;9.30;1.00;;;;;;5092686;28;20201;-79
2022/02/25 01:20:28;;;;;;;7.53;1.97;;;9.40;1.00;;;;;;5092985;28;20206;-79
2022/02/25 01:22:55;;;;;;;5.73;1.97;;;9.40;1.00;;;;;;5092481;28;20229;-76
2022/02/25 01:25:22;;;;;;;6.63;3.03;;;9.50;1.00;;;;;;5093216;28;20197;-73
2022/02/25 01:27:49;;;;;;;6.27;2.37;;;9.50;1.00;;;;;;5093519;28;20198;-76
2022/02/25 01:30:16;;;;;;;4.83;1.87;;;9.50;1.00;;;;;;5092777;28;20216;-78
2022/02/25 01:32:44;;;;;;;3.30;1.67;;;9.50;1.00;;;;;;5092850;28;20213;-77
2022/02/25 01:35:11;;;;;;;5.27;2.37;;;9.50;1.00;;;;;;5092505;28;20197;-77
2022/02/25 01:37:38;;;;;;;4.67;1.90;;;9.60;1.00;;;;;;5092598;28;20198;-77
2022/02/25 01:40:07;;;;;;;2.73;1.50;;;9.60;1.00;;;;;;5092382;28;20228;-77
2022/02/25 01:42:44;;;;;;;3.97;1.50;;;9.60;1.00;;;;;;5092684;28;20294;-77
2022/02/25 01:45:11;;;;;;;2.50;1.80;;;9.60;1.00;;;;;;5092180;28;20205;-73
2022/02/25 01:47:38;;;;;;;4.27;2.30;;;9.50;1.00;;;;;;5092598;28;20621;-76
2022/02/25 01:50:07;;;;;;;2.90;1.43;;;9.50;1.00;;;;;;5091958;28;20239;-76
2022/02/25 01:52:34;;;;;;;6.60;2.13;;;9.50;1.00;;;;;;5092510;28;20233;-75
2022/02/25 01:55:03;;;;;;;4.83;2.27;;;9.50;1.00;;;;;;5092206;28;20206;-76
2022/02/25 01:57:30;;;;;;;3.53;1.30;;;9.50;1.00;;;;;;5092430;28;20301;-77
2022/02/25 01:59:57;;;;;;;3.30;1.87;;;9.40;1.00;;;;;;5091930;28;20674;-70
2022/02/25 02:02:24;;;;;;;3.67;1.73;;;9.20;1.00;;;;;;5091681;28;20225;-76
2022/02/25 02:04:51;;;;;;;8.43;1.53;;;9.10;1.00;;;;;;5092491;28;20723;-79
2022/02/25 02:07:20;;;;;;;3.23;1.47;;;9.10;1.00;;;;;;5092151;28;20201;-75
2022/02/25 02:09:47;;;;;;;7.13;2.60;;;9.20;1.00;;;;;;5092441;28;20669;-78
2022/02/25 02:12:14;;;;;;;2.30;1.50;;;9.30;1.00;;;;;;5091816;28;20210;-75
2022/02/25 02:14:41;;;;;;;5.67;1.70;;;9.40;1.00;;;;;;5091997;28;20206;-75
2022/02/25 02:17:08;;;;;;;9.77;2.20;;;9.40;1.00;;;;;;5091739;28;20253;-74
2022/02/25 02:19:35;;;;;;;3.87;1.23;;;9.40;1.00;;;;;;5091892;28;20205;-74
2022/02/25 02:22:03;;;;;;;4.10;1.67;;;9.40;1.00;;;;;;5091103;28;20704;-75
2022/02/25 02:24:32;;;;;;;2.90;1.50;;;9.40;1.00;;;;;;5091946;28;20352;-74
2022/02/25 02:26:59;;;;;;;5.30;1.77;;;9.30;1.00;;;;;;5091547;28;20563;-76
2022/02/25 02:29:26;;;;;;;2.73;1.20;;;9.30;1.00;;;;;;5091915;28;20197;-74
2022/02/25 02:31:53;;;;;;;4.60;1.30;;;9.30;1.00;;;;;;5091725;28;20201;-71
2022/02/25 02:34:20;;;;;;;7.50;1.50;;;9.30;1.00;;;;;;5091704;28;20742;-74
2022/02/25 02:36:48;;;;;;;7.93;1.30;;;9.30;1.00;;;;;;5092209;28;20278;-75
2022/02/25 02:39:15;;;;;;;3.53;1.20;;;9.30;1.00;;;;;;5091158;28;20568;-71
2022/02/25 02:41:43;;;;;;;7.23;2.10;;;9.20;1.00;;;;;;5091570;28;20262;-71
2022/02/25 02:44:10;;;;;;;7.83;1.63;;;9.20;1.00;;;;;;5091123;28;20197;-74
2022/02/25 02:46:38;;;;;;;7.23;1.80;;;9.20;1.00;;;;;;5091504;28;20206;-79
2022/02/25 02:49:06;;;;;;;10.00;1.77;;;9.30;1.00;;;;;;5091105;28;20201;-80
2022/02/25 02:51:33;;;;;;;3.40;1.30;;;9.20;1.00;;;;;;5091836;28;20208;-77
2022/02/25 02:54:00;;;;;;;4.87;1.60;;;9.20;1.00;;;;;;5091009;28;20209;-77
2022/02/25 02:56:28;;;;;;;5.77;1.83;;;9.20;1.00;;;;;;5091221;28;20258;-76
2022/02/25 02:58:56;;;;;;;10.20;2.47;;;9.10;1.00;;;;;;5090978;28;20262;-78
2022/02/25 03:01:25;;;;;;;5.83;1.83;;;9.10;1.00;;;;;;5090319;28;20213;-72
2022/02/25 03:03:52;;;;;;;8.53;2.17;;;9.00;1.00;;;;;;5091184;28;20311;-73
2022/02/25 03:06:20;;;;;;;11.37;2.07;;;9.10;1.00;;;;;;5091511;28;20201;-75
2022/02/25 03:08:47;;;;;;;6.50;1.83;;;9.10;1.00;;;;;;5091189;28;20209;-80
2022/02/25 03:11:14;;;;;;;6.47;1.30;;;9.00;1.00;;;;;;5091028;28;20271;-77
2022/02/25 03:13:42;;;;;;;4.23;2.67;;;9.00;1.00;;;;;;5090394;28;20259;-78
2022/02/25 03:16:10;;;;;;;8.27;1.80;;;9.00;1.00;;;;;;5091091;28;20205;-79
2022/02/25 03:18:37;;;;;;;7.87;1.63;;;8.90;1.00;;;;;;5091403;28;20255;-83
2022/02/25 03:21:05;;;;;;;6.33;1.90;;;9.00;1.00;;;;;;5090980;28;20259;-73
2022/02/25 03:23:32;;;;;;;10.80;2.17;;;9.00;1.00;;;;;;5091291;28;20320;-84
2022/02/25 03:25:59;;;;;;;6.23;2.23;;;8.90;1.00;;;;;;5090867;28;20205;-80
2022/02/25 03:28:27;;;;;;;8.63;3.30;;;8.90;1.00;;;;;;5091414;28;20315;-79
2022/02/25 03:30:54;;;;;;;11.60;1.70;;;8.80;1.00;;;;;;5091378;28;20201;-72
2022/02/25 03:33:22;;;;;;;3.53;1.97;;;8.80;1.00;;;;;;5091092;28;20197;-78
2022/02/25 03:35:49;;;;;;;11.50;2.87;;;8.80;1.00;;;;;;5091302;28;20201;-76
2022/02/25 03:38:16;;;;;;;7.23;2.40;;;8.70;1.00;;;;;;5090757;28;20202;-79
2022/02/25 03:40:43;;;;;;;8.33;2.13;;;8.70;1.00;;;;;;5090852;28;20209;-78
2022/02/25 03:43:10;;;;;;;5.83;1.90;;;8.70;1.00;;;;;;5090325;28;20233;-75
2022/02/25 03:45:37;;;;;;;4.47;2.20;;;8.70;1.00;;;;;;5090858;28;20202;-79
2022/02/25 03:48:05;;;;;;;6.67;2.57;;;8.70;1.00;;;;;;5090342;28;20201;-73
2022/02/25 03:50:33;;;;;;;8.67;2.50;;;8.70;1.00;;;;;;5091162;28;20197;-75
2022/02/25 03:53:00;;;;;;;4.57;2.17;;;8.70;1.00;;;;;;5090326;28;20217;-76
2022/02/25 03:55:27;;;;;;;6.50;1.47;;;8.60;1.00;;;;;;5090680;28;20209;-76
2022/02/25 03:57:54;;;;;;;6.23;1.60;;;8.60;1.00;;;;;;5090286;28;20202;-76
2022/02/25 04:00:21;;;;;;;5.07;1.40;;;8.60;1.00;;;;;;5091221;28;20205;-78
2022/02/25 04:02:48;;;;;;;12.47;1.90;;;8.70;1.00;;;;;;5090798;28;20225;-76
2022/02/25 04:05:15;;;;;;;4.63;1.53;;;8.60;1.00;;;;;;5090275;28;20205;-74
2022/02/25 04:07:45;;;;;;;10.40;1.53;;;8.60;1.00;;;;;;5090563;28;20209;-77
2022/02/25 04:10:13;;;;;;;11.10;2.57;;;8.60;1.00;;;;;;5090206;28;20209;-77
2022/02/25 04:12:40;;;;;;;13.67;3.30;;;8.50;1.00;;;;;;5090745;28;20213;-77
2022/02/25 04:15:09;;;;;;;9.30;2.70;;;8.50;1.00;;;;;;5090336;28;20257;-74
2022/02/25 04:17:36;;;;;;;8.20;1.83;;;8.50;1.00;;;;;;5090356;28;20210;-76
2022/02/25 04:20:05;;;;;;;11.10;4.00;;;8.50;1.00;;;;;;5090063;28;20201;-74
2022/02/25 04:22:32;;;;;;;7.23;2.40;;;8.50;1.00;;;;;;5090433;28;20295;-75
2022/02/25 04:25:00;;;;;;;10.07;2.50;;;8.50;1.00;;;;;;5091185;28;20206;-76
2022/02/25 04:27:27;;;;;;;9.47;2.60;;;8.40;1.00;;;;;;5094534;28;20204;-77
2022/02/25 04:29:54;;;;;;;6.90;2.10;;;8.40;1.00;;;;;;5094069;28;20262;-72
2022/02/25 04:32:21;;;;;;;6.67;1.77;;;8.40;1.00;;;;;;5094191;28;20202;-74
2022/02/25 04:34:48;;;;;;;4.83;2.00;;;8.30;1.00;;;;;;5094278;28;20622;-79
2022/02/25 04:37:15;;;;;;;9.40;2.67;;;8.30;1.00;;;;;;5093648;28;20709;-71
2022/02/25 04:39:42;;;;;;;6.83;2.27;;;8.30;1.00;;;;;;5093890;28;20672;-72
2022/02/25 04:42:11;;;;;;;10.93;3.20;;;8.30;1.00;;;;;;5093824;28;20197;-73
2022/02/25 04:44:38;;;;;;;10.53;2.30;;;8.30;1.00;;;;;;5093873;28;20202;-78
2022/02/25 04:47:06;;;;;;;8.20;1.43;;;8.30;1.00;;;;;;5093263;28;20205;-75
2022/02/25 04:49:33;;;;;;;10.70;2.63;;;8.30;1.00;;;;;;5093708;28;20232;-78
2022/02/25 04:52:00;;;;;;;8.67;3.27;;;8.30;1.00;;;;;;5093588;28;20208;-79
2022/02/25 04:54:27;;;;;;;6.80;2.23;;;8.20;1.00;;;;;;5093475;28;20210;-75
2022/02/25 04:56:54;;;;;;;5.60;2.30;;;8.10;1.00;;;;;;5093330;28;20558;-71
2022/02/25 04:59:22;;;;;;;8.40;2.87;;;8.00;1.00;;;;;;5093957;28;20286;-76
2022/02/25 05:01:49;;;;;;;13.87;4.33;;;8.10;1.00;;;;;;5091890;28;20727;-77
2022/02/25 05:04:16;;;;;;;8.87;3.43;;;8.10;1.00;;;;;;5093003;28;20233;-69
2022/02/25 05:06:43;;;;;;;10.33;3.20;;;8.20;1.00;;;;;;5093690;28;20259;-75
2022/02/25 05:09:10;;;;;;;10.80;3.47;;;8.30;1.00;;;;;;5093044;28;20251;-76
2022/02/25 05:11:37;;;;;;;11.67;3.43;;;8.40;1.00;;;;;;5093406;28;20201;-75
2022/02/25 05:14:04;;;;;;;6.77;2.90;;;8.30;1.00;;;;;;5092991;28;20205;-78
2022/02/25 05:22:01;;;;;;;13.10;4.30;;;8.10;1.00;;;;;;5092896;28;20246;-74
2022/02/25 05:24:28;;;;;;;12.13;2.73;;;8.10;1.00;;;;;;5093019;28;20283;-73
2022/02/25 05:26:55;;;;;;;8.53;3.07;;;8.00;1.00;;;;;;5092577;28;20197;-73
2022/02/25 05:29:22;;;;;;;5.47;2.50;;;8.00;1.00;;;;;;5092858;28;20202;-73
2022/02/25 05:31:50;;;;;;;9.43;2.70;;;8.00;1.00;;;;;;5093517;28;20258;-73
2022/02/25 05:34:17;;;;;;;11.73;3.00;;;8.00;1.00;;;;;;5092690;28;20665;-75
2022/02/25 05:36:44;;;;;;;8.03;2.80;;;8.00;1.00;;;;;;5091975;28;20236;-77
2022/02/25 05:39:11;;;;;;;17.33;3.37;;;8.00;1.00;;;;;;5092539;28;20198;-77
2022/02/25 05:41:38;;;;;;;8.03;2.53;;;8.00;1.00;;;;;;5092674;28;20209;-77
2022/02/25 05:44:05;;;;;;;10.57;2.10;;;7.90;1.00;;;;;;5092123;28;20708;-76
2022/02/25 05:46:33;;;;;;;6.43;2.30;;;8.00;1.00;;;;;;5092815;28;20205;-71
2022/02/25 05:49:01;;;;;;;12.47;2.60;;;8.00;1.00;;;;;;5093620;28;20380;-73
2022/02/25 05:51:28;;;;;;;5.43;2.13;;;8.00;1.00;;;;;;5092426;28;20221;-77
2022/02/25 05:53:55;;;;;;;10.40;3.37;;;7.90;1.00;;;;;;5091793;28;20213;-73
2022/02/25 05:56:24;;;;;;;13.87;2.27;;;7.90;1.00;;;;;;5092167;28;20262;-74
2022/02/25 05:58:51;;;;;;;7.33;2.47;;;7.90;1.00;;;;;;5092193;28;20205;-78
2022/02/25 06:01:18;;;;;;;8.13;3.20;;;7.80;1.00;;;;;;5092745;28;20214;-71
2022/02/25 06:03:45;;;;;;;10.40;4.17;;;7.90;1.00;;;;;;5091752;28;20286;-72
2022/02/25 06:06:13;;;;;;;15.23;3.37;;;7.90;1.00;;;;;;5086602;28;20267;-79
2022/02/25 06:08:40;;;;;;;11.57;2.43;;;7.90;1.00;;;;;;5091932;28;20198;-80
2022/02/25 06:11:07;;;;;;;9.77;2.73;;;7.90;1.00;;;;;;5091770;28;20633;-81
2022/02/25 06:13:34;;;;;;;8.27;3.13;;;7.80;1.00;;;;;;5092302;28;20258;-74
2022/02/25 06:16:01;;;;;;;8.63;2.70;;;7.80;1.00;;;;;;5091353;28;20202;-78
2022/02/25 06:18:28;;;;;;;6.97;1.90;;;7.80;1.00;;;;;;5091701;28;20201;-76
2022/02/25 06:20:55;;;;;;;14.10;2.50;;;7.80;1.00;;;;;;5091713;28;20213;-77
2022/02/25 06:23:24;;;;;;;13.67;3.47;;;7.80;1.00;;;;;;5091921;28;20781;-73
2022/02/25 06:25:54;;;;;;;10.70;2.27;;;7.70;1.00;;;;;;5091277;28;20205;-76
2022/02/25 06:28:21;;;;;;;10.30;3.00;;;7.80;1.00;;;;;;5096244;28;20201;-76
2022/02/25 06:30:48;;;;;;;8.97;3.77;;;7.80;1.00;;;;;;5106856;28;20247;-78
2022/02/25 06:33:15;;;;;;;13.07;3.67;;;7.80;1.00;;;;;;5111699;28;20277;-76
2022/02/25 06:35:42;;;;;;;6.77;2.67;;;7.80;1.00;;;;;;5107964;28;20785;-77
2022/02/25 06:38:09;;;;;;;7.43;2.53;;;7.70;1.00;;;;;;5091356;28;20201;-75
2022/02/25 06:40:37;;;;;;;6.63;2.30;;;7.70;1.00;;;;;;5091929;28;20205;-89
2022/02/25 06:43:04;;;;;;;9.00;2.30;;;7.70;1.00;;;;;;5091576;28;20655;-77
2022/02/25 06:45:31;;;;;;;5.77;3.23;;;7.80;1.00;;;;;;5091900;28;20258;-82
2022/02/25 06:47:58;;;;;;;8.70;3.30;;;7.70;1.00;;;;;;5091170;28;20201;-81
2022/02/25 06:50:25;;;;;;;10.40;2.57;;;7.60;1.00;;;;;;5081907;28;20259;-78
2022/02/25 06:52:53;;;;;;;11.03;2.80;;;7.60;1.00;;;;;;5099538;28;20209;-74
2022/02/25 06:55:21;;;;;;;12.27;3.13;;;7.60;1.00;;;;;;5095978;28;20300;-78
2022/02/25 06:57:49;;;;;;;7.60;2.33;;;7.60;1.00;;;;;;5104841;28;20676;-78
2022/02/25 07:00:21;;;;;;;12.23;2.80;;;7.60;1.00;;;;;;5088868;28;20262;-79
2022/02/25 07:02:49;;;;;;;7.33;2.27;;;7.60;1.00;;;;;;5090011;28;20592;-80
2022/02/25 07:05:16;;;;;;;14.97;3.80;;;7.60;1.00;;;;;;5109163;28;20258;-79
2022/02/25 07:07:43;;;;;;;8.97;2.50;;;7.60;1.00;;;;;;5105003;28;20270;-78
2022/02/25 07:10:11;;;;;;;25.90;3.23;;;7.60;1.00;;;;;;5093731;28;20205;-79
2022/02/25 07:12:38;;;;;;;14.50;3.50;;;7.60;1.00;;;;;;5091433;28;20208;-79
2022/02/25 07:15:08;;;;;;;9.80;3.23;;;7.60;1.00;;;;;;5090362;28;20263;-79
2022/02/25 07:17:35;;;;;;;13.53;3.50;;;7.60;1.00;;;;;;5091065;28;20554;-81
2022/02/25 07:20:03;;;;;;;12.13;3.17;;;7.60;1.00;;;;;;5110881;28;20211;-78
2022/02/25 07:22:30;;;;;;;9.67;2.63;;;7.70;1.00;;;;;;5100001;28;20633;-77
2022/02/25 07:24:57;;;;;;;7.00;2.07;;;7.80;1.00;;;;;;5090573;28;20275;-78
2022/02/25 07:27:24;;;;;;;14.03;3.43;;;7.80;1.00;;;;;;5090003;28;20632;-78
2022/02/25 07:29:52;;;;;;;9.50;2.83;;;7.80;1.00;;;;;;5090968;28;20213;-79
2022/02/25 07:32:20;;;;;;;14.43;3.83;;;7.80;1.00;;;;;;5090765;28;20213;-79
2022/02/25 07:34:48;;;;;;;15.03;2.90;;;7.70;1.00;;;;;;5090328;28;20794;-79
2022/02/25 07:37:15;;;;;;;6.77;2.93;;;7.80;1.00;;;;;;5082563;28;20241;-79
2022/02/25 07:39:42;;;;;;;8.90;3.17;;;7.80;1.00;;;;;;5096401;28;20647;-77
2022/02/25 07:42:09;;;;;;;10.50;4.70;;;7.80;1.00;;;;;;5096085;28;20333;-78
2022/02/25 07:44:36;;;;;;;9.67;3.07;;;7.80;1.00;;;;;;5110633;28;20832;-78
2022/02/25 07:47:03;;;;;;;14.93;2.83;;;7.80;1.00;;;;;;5092113;28;20206;-82
2022/02/25 07:49:32;;;;;;;10.50;3.43;;;7.80;1.00;;;;;;5088728;28;20251;-79
2022/02/25 07:51:59;;;;;;;5.63;2.10;;;7.70;1.00;;;;;;5096010;28;20552;-80
2022/02/25 07:54:26;;;;;;;9.37;2.53;;;7.80;1.00;;;;;;5087631;28;20209;-76
2022/02/25 07:56:53;;;;;;;12.10;3.07;;;7.80;1.00;;;;;;5103721;28;20206;-74
2022/02/25 07:59:20;;;;;;;9.57;3.33;;;7.80;1.00;;;;;;5096405;28;20730;-80
2022/02/25 08:01:47;;;;;;;10.97;2.60;;;7.60;1.00;;;;;;5111740;28;20201;-77
2022/02/25 08:04:14;;;;;;;5.67;3.23;;;7.70;1.00;;;;;;5103881;28;20274;-78
2022/02/25 08:06:45;;;;;;;8.43;2.33;;;7.60;1.00;;;;;;5103312;28;20225;-80
2022/02/25 08:09:13;;;;;;;14.60;3.43;;;7.80;1.00;;;;;;5094747;28;20205;-80
2022/02/25 08:11:40;;;;;;;11.67;2.60;;;7.90;1.00;;;;;;5098778;28;20206;-79
2022/02/25 08:14:07;;;;;;;5.83;3.43;;;8.00;1.00;;;;;;5112919;28;20583;-78
2022/02/25 08:16:34;;;;;;;10.97;2.20;;;7.90;1.00;;;;;;5104245;28;20677;-79
2022/02/25 08:19:01;;;;;;;16.80;3.57;;;8.00;1.00;;;;;;5098695;28;20209;-78
2022/02/25 08:21:28;;;;;;;13.93;2.63;;;7.90;1.00;;;;;;5101120;28;20209;-78
2022/02/25 08:23:56;;;;;;;16.83;4.27;;;7.90;1.00;;;;;;5099788;28;20221;-78
2022/02/25 08:26:23;;;;;;;8.63;4.40;;;8.20;1.00;;;;;;5096407;28;20664;-77
2022/02/25 08:28:51;;;;;;;11.83;3.23;;;8.10;1.00;;;;;;5094252;28;20236;-80
2022/02/25 08:31:19;;;;;;;13.70;3.73;;;8.20;1.00;;;;;;5112944;28;20291;-80
2022/02/25 08:33:46;;;;;;;11.03;4.10;;;8.40;1.00;;;;;;5102232;28;20217;-78
2022/02/25 08:36:13;;;;;;;21.30;4.13;;;8.30;1.00;;;;;;5111627;28;20634;-80
2022/02/25 08:38:41;;;;;;;10.93;2.40;;;8.40;1.00;;;;;;5099314;28;20211;-80
2022/02/25 08:41:09;;;;;;;20.80;4.90;;;8.70;1.00;;;;;;5093592;28;20206;-79
2022/02/25 08:43:36;;;;;;;6.97;2.27;;;9.10;1.00;;;;;;5093943;28;20276;-80
2022/02/25 08:46:03;;;;;;;11.00;3.53;;;9.00;1.00;;;;;;5091844;28;20258;-78
2022/02/25 08:48:31;;;;;;;8.07;2.93;;;8.80;1.00;;;;;;5092631;28;20684;-79
2022/02/25 08:50:58;;;;;;;7.60;2.00;;;8.20;1.00;;;;;;5091964;28;20205;-77
2022/02/25 08:53:25;;;;;;;10.30;3.17;;;8.20;1.00;;;;;;5093646;28;20214;-78
2022/02/25 08:55:52;;;;;;;8.90;2.07;;;8.30;1.00;;;;;;5093355;28;20738;-75
2022/02/25 08:58:21;;;;;;;12.63;2.83;;;8.40;1.00;;;;;;5093121;28;20209;-80
2022/02/25 09:00:48;;;;;;;10.20;2.83;;;8.50;1.00;;;;;;5093930;28;20213;-79
2022/02/25 09:03:15;;;;;;;17.60;4.30;;;8.80;1.00;;;;;;5100933;28;20615;-82
2022/02/25 09:05:42;;;;;;;13.17;3.20;;;9.10;1.00;;;;;;5094204;28;20237;-81
2022/02/25 09:08:09;;;;;;;7.00;2.87;;;9.20;1.00;;;;;;5092739;28;20208;-71
2022/02/25 09:10:36;;;;;;;8.90;3.20;;;9.30;1.00;;;;;;5085281;28;20267;-70
2022/02/25 09:13:03;;;;;;;5.90;2.83;;;9.30;1.00;;;;;;5091928;28;20202;-70
2022/02/25 09:15:34;;;;;;;9.93;2.90;;;9.20;1.00;;;;;;5087586;28;20228;-70
2022/02/25 09:18:01;;;;;;;13.70;3.07;;;9.30;1.00;;;;;;5072945;28;20222;-70
2022/02/25 09:20:29;;;;;;;8.57;3.43;;;9.50;1.00;;;;;;5084735;28;20198;-81
2022/02/25 09:22:57;;;;;;;8.17;3.90;;;9.60;1.00;;;;;;5077130;28;20205;-71
2022/02/25 09:25:24;;;;;;;12.00;3.30;;;9.90;1.00;;;;;;5093177;28;20233;-69
2022/02/25 09:27:51;;;;;;;13.17;2.90;;;10.10;1.00;;;;;;5093186;28;20207;-73
2022/02/25 09:30:19;;;;;;;13.03;3.33;;;9.90;1.00;;;;;;5093386;28;20264;-74
2022/02/25 09:32:48;;;;;;;7.90;3.00;;;9.70;1.00;;;;;;5100089;28;20200;-69
2022/02/25 09:35:15;;;;;;;16.53;3.10;;;9.70;1.00;;;;;;5108744;28;20204;-73
2022/02/25 09:37:43;;;;;;;8.10;2.67;;;9.50;1.00;;;;;;5112984;28;20281;-69
2022/02/25 09:40:13;;;;;;;12.20;2.93;;;9.80;1.00;;;;;;5112652;28;20305;-70
2022/02/25 09:42:42;;;;;;;8.73;2.20;;;10.10;1.00;;;;;;5112852;28;20334;-71
2022/02/25 09:45:11;;;;;;;8.17;2.60;;;10.00;1.00;;;;;;5112463;28;20289;-68
2022/02/25 09:47:39;;;;;;;18.37;4.23;;;9.70;1.00;;;;;;5113210;28;20201;-70
2022/02/25 09:50:10;;;;;;;10.40;3.07;;;9.50;1.00;;;;;;5110442;27;20717;-74
2022/02/25 09:52:39;;;;;;;11.43;2.23;;;9.50;1.00;;;;;;5080967;28;20588;-69
2022/02/25 09:55:08;;;;;;;8.57;2.83;;;9.50;1.00;;;;;;5089255;28;20692;-69
2022/02/25 09:57:35;;;;;;;8.60;3.57;;;9.80;1.00;;;;;;5098388;28;20205;-69
2022/02/25 10:00:02;;;;;;;4.53;2.07;;;10.70;1.00;;;;;;5097426;28;20250;-70
2022/02/25 10:02:40;;;;;;;8.53;2.20;;;11.30;1.00;;;;;;5098029;28;20265;-69
2022/02/25 10:05:13;;;;;;;10.03;2.57;;;11.30;1.00;;;;;;5098732;28;20237;-69
2022/02/25 10:07:40;;;;;;;13.07;2.13;;;11.50;1.00;;;;;;5107203;28;20213;-69
2022/02/25 10:10:09;;;;;;;13.30;2.40;;;11.00;1.00;;;;;;5096434;28;20209;-73
2022/02/25 10:12:37;;;;;;;7.10;1.90;;;10.90;1.00;;;;;;5105115;28;20730;-72
2022/02/25 10:15:05;;;;;;;11.87;2.73;;;11.10;1.00;;;;;;5111922;28;20291;-70
2022/02/25 10:17:32;;;;;;;8.20;3.00;;;11.20;1.00;;;;;;5110880;28;20208;-75
2022/02/25 10:20:01;;;;;;;13.47;3.37;;;11.60;1.00;;;;;;5111985;28;20204;-68
2022/02/25 10:22:31;;;;;;;10.17;2.37;;;11.70;1.00;;;;;;5111265;28;20292;-74
2022/02/25 10:25:00;;;;;;;11.60;2.70;;;11.20;1.00;;;;;;5110922;28;20221;-81
2022/02/25 10:27:30;;;;;;;10.20;2.47;;;10.80;1.00;;;;;;5096940;28;20258;-76
2022/02/25 10:30:00;;;;;;;13.38;2.55;;;12.30;1.00;;;;;;5106839;28;20209;-78
2022/02/25 10:32:32;;;;;;;11.85;2.85;;;12.90;1.00;;;;;;5100305;28;20255;-82
2022/02/25 10:34:59;;;;;;;6.03;2.30;;;14.40;1.00;;;;;;5104044;28;20211;-75
2022/02/25 10:37:27;;;;;;;11.32;4.53;;;16.30;1.00;;;;;;5093322;28;20734;-70
2022/02/25 10:39:55;;;;;;;7.65;4.60;;;17.40;1.00;;;;;;5097904;28;20206;-70
2022/02/25 10:42:24;;;;;;;12.98;5.88;;;14.30;1.00;;;;;;5092222;28;20206;-72
2022/02/25 10:44:57;;;;;;;14.00;4.40;;;12.40;1.00;;;;;;5095154;28;20225;-71
2022/02/25 10:47:26;;;;;;;4.53;2.50;;;11.90;1.00;;;;;;5102821;28;20584;-77
2022/02/25 10:50:01;;;;;;;12.07;6.18;;;11.80;1.00;;;;;;5095696;28;20255;-76
2022/02/25 10:52:31;;;;;;;6.57;2.13;;;11.90;1.00;;;;;;5096125;28;20216;-72
2022/02/25 10:55:00;;;;;;;9.07;2.60;;;11.80;1.00;;;;;;5090967;28;20270;-69
2022/02/25 10:57:29;;;;;;;9.73;3.47;;;11.80;1.00;;;;;;5090014;28;20202;-68
2022/02/25 10:59:58;;;;;;;9.10;1.80;;;12.00;1.00;;;;;;5090102;28;20193;-69
2022/02/25 11:02:30;;;;;;;7.45;2.03;;;11.90;1.00;;;;;;5090771;28;20613;-69
2022/02/25 11:05:07;;;;;;;4.13;1.13;;;10.90;1.00;;;;;;5090757;28;20233;-68
2022/02/25 11:07:35;;;;;;;9.43;1.75;;;10.50;1.00;;;;;;5091113;28;20213;-70
2022/02/25 11:10:04;;;;;;;5.80;1.60;;;10.80;1.00;;;;;;5090964;28;20197;-75
2022/02/25 11:12:31;;;;;;;6.93;2.30;;;11.10;1.00;;;;;;5091296;28;20258;-72
2022/02/25 11:14:58;;;;;;;7.57;2.13;;;11.10;1.00;;;;;;5088659;28;20697;-72
2022/02/25 11:17:26;;;;;;;6.63;2.20;;;11.10;1.00;;;;;;5090977;28;20627;-69
2022/02/25 11:19:58;;;;;;;5.93;1.87;;;10.90;1.00;;;;;;5090915;28;20202;-69
2022/02/25 11:22:27;;;;;;;9.63;2.70;;;11.10;1.00;;;;;;5091072;28;20198;-70
2022/02/25 11:24:55;;;;;;;10.43;3.03;;;11.30;1.00;;;;;;5090348;28;20229;-74
2022/02/25 11:27:24;;;;;;;6.57;2.13;;;11.10;1.00;;;;;;5090866;28;20552;-69
2022/02/25 11:29:58;;;;;;;6.03;2.47;;;11.10;1.00;;;;;;5091127;28;20205;-69
2022/02/25 11:32:34;;;;;;;9.30;2.83;;;11.30;1.00;;;;;;5090777;28;20243;-71
2022/02/25 11:35:11;;;;;;;6.97;1.90;;;11.60;1.00;;;;;;5089578;28;20688;-69
2022/02/25 11:37:43;;;;;;;8.27;2.07;;;11.50;1.00;;;;;;5090917;28;20205;-70
2022/02/25 11:40:11;;;;;;;7.10;2.57;;;11.50;1.00;;;;;;5090706;28;20197;-72
2022/02/25 11:42:39;;;;;;;6.50;2.37;;;11.50;1.00;;;;;;5090844;28;20270;-72
2022/02/25 11:45:23;;;;;;;6.40;2.03;;;11.40;1.00;;;;;;5089823;28;20221;-78
2022/02/25 11:47:53;;;;;;;13.10;3.57;;;11.20;1.00;;;;;;5077834;28;20742;-75
2022/02/25 11:50:38;;;;;;;7.10;1.87;;;11.50;1.00;;;;;;5108630;28;20451;-75
2022/02/25 11:53:20;;;;;;;2.50;1.58;;;11.80;1.00;;;;;;5094613;28;20213;-75
2022/02/25 11:55:48;;;;;;;5.47;2.33;;;11.70;1.00;;;;;;5082091;28;20696;-77
2022/02/25 11:58:50;;;;;;;4.80;1.70;;;11.90;1.00;;;;;;5087627;28;20193;-76
2022/02/25 12:01:17;;;;;;;5.67;2.03;;;11.60;1.00;;;;;;5072494;28;20288;-75
2022/02/25 12:04:07;;;;;;;7.57;2.20;;;11.10;1.00;;;;;;5081617;28;20239;-76
2022/02/25 12:07:03;;;;;;;2.77;1.40;;;11.10;1.00;;;;;;5088249;28;20242;-75
2022/02/25 12:09:45;;;;;;;3.90;1.38;;;11.50;1.00;;;;;;5106572;28;20249;-74
2022/02/25 12:12:39;;;;;;;3.37;1.33;;;11.60;1.00;;;;;;5098284;28;20633;-75
2022/02/25 12:15:10;;;;;;;4.53;1.63;;;11.20;1.00;;;;;;5083674;28;20205;-75
2022/02/25 12:17:44;;;;;;;4.97;2.10;;;11.30;1.00;;;;;;5093827;28;20290;-75
2022/02/25 12:20:14;;;;;;;7.50;2.10;;;11.00;1.00;;;;;;5090101;28;20201;-75
2022/02/25 12:22:56;;;;;;;7.37;2.10;;;11.50;1.00;;;;;;5090505;28;20296;-75
2022/02/25 12:25:44;;;;;;;5.30;1.67;;;11.70;1.00;;;;;;5090385;28;20286;-74
2022/02/25 12:28:48;;;;;;;9.23;2.10;;;11.70;1.00;;;;;;5089946;28;20247;-75
2022/02/25 12:31:19;;;;;;;7.20;2.40;;;12.00;1.00;;;;;;5090047;28;20201;-75
2022/02/25 12:34:00;;;;;;;7.20;2.10;;;11.90;1.00;;;;;;5090474;28;20213;-75
2022/02/25 12:36:44;;;;;;;3.20;1.83;;;11.70;1.00;;;;;;5090408;28;20259;-75
2022/02/25 12:39:17;;;;;;;3.58;1.63;;;11.90;1.00;;;;;;5089956;28;20612;-74
2022/02/25 12:41:46;;;;;;;11.43;1.87;;;11.80;1.00;;;;;;5090282;28;20205;-75
2022/02/25 12:44:15;;;;;;;3.00;1.40;;;11.60;1.00;;;;;;5089803;28;20197;-75
2022/02/25 12:46:45;;;;;;;5.60;2.83;;;11.80;1.00;;;;;;5091914;28;20640;-75
2022/02/25 12:49:15;;;;;;;2.57;1.10;;;11.80;1.00;;;;;;5092276;28;20741;-74
2022/02/25 12:51:44;;;;;;;6.33;1.57;;;11.70;1.00;;;;;;5093825;28;20258;-73
2022/02/25 12:54:12;;;;;;;7.20;1.50;;;11.70;1.00;;;;;;5093106;28;20217;-72
2022/02/25 12:56:40;;;;;;;5.40;1.63;;;11.60;1.00;;;;;;5092963;28;20239;-74
2022/02/25 12:59:10;;;;;;;7.73;1.33;;;11.50;1.00;;;;;;5093281;28;20251;-73
2022/02/25 13:01:39;;;;;;;4.80;2.17;;;11.40;1.00;;;;;;5093834;28;20209;-73
2022/02/25 13:04:12;;;;;;;7.03;2.80;;;11.60;1.00;;;;;;5093258;28;20209;-75
2022/02/25 13:06:40;;;;;;;3.85;1.55;;;11.50;1.00;;;;;;5085645;28;20242;-74
2022/02/25 13:09:09;;;;;;;4.97;1.40;;;11.40;1.00;;;;;;5099229;28;20201;-73
2022/02/25 13:11:37;;;;;;;4.90;1.90;;;11.70;1.00;;;;;;5109485;28;20209;-72
2022/02/25 13:14:16;;;;;;;6.37;1.93;;;11.90;1.00;;;;;;5091549;28;20255;-72
2022/02/25 13:16:57;;;;;;;2.63;1.77;;;12.00;1.00;;;;;;5092473;28;20213;-72